Time;durP1;ratioP1;P1;durP2;ratioP2;P2;SDS_P1;SDS_P2;PMS_P1;PMS_P2;Temp;Humidity;BMP_temperature;BMP_pressure;BME280_temperature;BME280_humidity;BME280_pressure;Samples;Min_cycle;Max_cycle;Signal;HPM_P1;HPM_P2
2022/04/05 00:00:00;;;;;;;;;;;;;;;9.47;100.00;101189.16;5114307;28;19915;-68
2022/04/05 00:02:25;;;;;;;;;;;;;;;9.45;100.00;101192.78;5113203;28;19927;-68
2022/04/05 00:04:51;;;;;;;;;;;;;;;9.40;100.00;101192.94;5114576;28;19916;-67
2022/04/05 00:07:16;;;;;;;;;;;;;;;9.39;100.00;101195.63;5114473;28;19916;-68
2022/04/05 00:09:41;;;;;;;;;;;;;;;9.43;99.50;101189.31;5116802;28;19916;-67
2022/04/05 00:12:07;;;;;;;;;;;;;;;9.34;99.50;101196.63;5118884;28;19963;-67
2022/04/05 00:14:32;;;;;;;;;;;;;;;9.32;99.10;101190.53;5118572;28;19969;-68
2022/04/05 00:16:57;;;;;;;;;;;;;;;9.27;98.96;101197.75;5116925;28;20007;-67
2022/04/05 00:19:23;;;;;;;;;;;;;;;9.23;98.80;101196.09;5117584;27;20018;-68
2022/04/05 00:21:48;;;;;;;;;;;;;;;9.19;98.63;101197.13;5139056;27;19959;-67
2022/04/05 00:24:14;;;;;;;;;;;;;;;9.23;97.99;101205.84;5138923;27;19916;-68
2022/04/05 00:26:39;;;;;;;;;;;;;;;9.16;98.04;101197.22;5138861;27;19939;-67
2022/04/05 00:29:04;;;;;;;;;;;;;;;9.13;97.84;101196.44;5139089;27;19966;-68
2022/04/05 00:31:29;;;;;;;;;;;;;;;9.15;97.38;101203.44;5139104;27;19916;-67
2022/04/05 00:33:55;;;;;;;;;;;;;;;9.13;97.14;101207.94;5139056;27;19920;-66
2022/04/05 00:36:20;;;;;;;;;;;;;;;9.14;96.90;101199.06;5122317;27;19919;-67
2022/04/05 00:38:45;;;;;;;;;;;;;;;9.13;96.68;101204.41;5124913;27;19919;-68
2022/04/05 00:41:11;;;;;;;;;;;;;;;9.16;96.21;101199.00;5142070;27;19915;-67
2022/04/05 00:43:36;;;;;;;;;;;;;;;9.09;96.24;101200.13;5142856;27;19915;-68
2022/04/05 00:46:01;;;;;;;;;;;;;;;9.06;96.08;101190.47;5141587;27;19959;-67
2022/04/05 00:48:39;;;;;;;;;;;;;;;9.13;95.59;101201.75;5141513;27;20002;-67
2022/04/05 00:51:04;;;;;;;;;;;;;;;9.03;95.70;101201.16;5121112;27;19919;-67
2022/04/05 00:53:30;;;;;;;;;;;;;;;9.03;95.19;101203.81;5138203;27;19972;-67
2022/04/05 00:55:57;;;;;;;;;;;;;;;9.09;94.73;101202.78;5138673;27;19919;-67
2022/04/05 00:58:24;;;;;;;;;;;;;;;9.02;94.73;101207.38;5138520;27;20308;-67
2022/04/05 01:00:49;;;;;;;;;;;;;;;9.06;94.56;101206.38;5119803;27;19998;-67
2022/04/05 01:03:15;;;;;;;;;;;;;;;9.01;94.56;101213.56;5138681;27;19955;-67
2022/04/05 01:05:41;;;;;;;;;;;;;;;8.98;94.47;101211.03;5138458;27;20374;-68
2022/04/05 01:08:07;;;;;;;;;;;;;;;9.07;93.83;101212.53;5119714;27;19915;-68
2022/04/05 01:10:33;;;;;;;;;;;;;;;8.97;94.25;101208.44;5138094;27;19915;-68
2022/04/05 01:12:58;;;;;;;;;;;;;;;8.93;94.20;101218.28;5137903;27;20290;-67
2022/04/05 01:15:24;;;;;;;;;;;;;;;8.85;94.20;101212.34;5119596;27;19974;-68
2022/04/05 01:17:50;;;;;;;;;;;;;;;8.91;93.66;101214.78;5137710;27;19930;-68
2022/04/05 01:20:15;;;;;;;;;;;;;;;8.91;93.44;101220.09;5137464;27;19974;-67
2022/04/05 01:22:50;;;;;;;;;;;;;;;8.92;93.20;101216.50;5119392;27;20290;-67
2022/04/05 01:25:17;;;;;;;;;;;;;;;8.89;93.05;101213.97;5137621;27;20377;-67
2022/04/05 01:27:42;;;;;;;;;;;;;;;8.86;93.02;101222.00;5137608;27;19915;-67
2022/04/05 01:30:07;;;;;;;;;;;;;;;8.83;92.87;101221.22;5137647;27;19922;-68
2022/04/05 01:32:32;;;;;;;;;;;;;;;8.85;92.39;101222.06;5138117;27;19915;-67
2022/04/05 01:34:58;;;;;;;;;;;;;;;8.92;91.82;101215.63;5137509;27;19926;-67
2022/04/05 01:37:23;;;;;;;;;;;;;;;8.88;91.74;101225.47;5137283;27;19916;-67
2022/04/05 01:39:48;;;;;;;;;;;;;;;8.82;91.80;101220.38;5137494;27;20419;-68
2022/04/05 01:42:14;;;;;;;;;;;;;;;8.88;91.43;101222.84;5137106;27;20338;-67
2022/04/05 01:44:41;;;;;;;;;;;;;;;8.89;91.40;101211.31;5137371;27;19915;-67
2022/04/05 01:47:07;;;;;;;;;;;;;;;8.85;91.55;101214.09;5118857;27;19919;-67
2022/04/05 01:49:33;;;;;;;;;;;;;;;8.90;91.27;101213.03;5137027;27;19960;-67
2022/04/05 01:51:58;;;;;;;;;;;;;;;8.84;91.43;101210.56;5137279;27;19920;-67
2022/04/05 01:54:23;;;;;;;;;;;;;;;8.84;91.44;101207.09;5137197;27;19916;-67
2022/04/05 01:57:03;;;;;;;;;;;;;;;8.82;91.43;101204.47;5105674;28;19915;-67
2022/04/05 01:59:29;;;;;;;;;;;;;;;8.83;91.41;101205.31;5116676;28;19965;-67
2022/04/05 02:02:03;;;;;;;;;;;;;;;8.80;91.39;101198.34;5098038;28;20010;-68
2022/04/05 02:04:28;;;;;;;;;;;;;;;8.83;91.09;101202.69;5116362;28;19963;-68
2022/04/05 02:06:53;;;;;;;;;;;;;;;8.80;90.88;101203.66;5116282;28;19919;-67
2022/04/05 02:09:18;;;;;;;;;;;;;;;8.74;90.81;101201.19;5116271;28;19973;-68
2022/04/05 02:11:44;;;;;;;;;;;;;;;8.72;90.61;101200.34;5097951;28;19962;-67
2022/04/05 02:14:10;;;;;;;;;;;;;;;8.82;90.07;101208.91;5116053;28;20366;-68
2022/04/05 02:16:35;;;;;;;;;;;;;;;8.80;89.93;101201.00;5116013;28;20324;-67
2022/04/05 02:19:01;;;;;;;;;;;;;;;8.82;89.76;101199.19;5116243;28;19916;-67
2022/04/05 02:21:26;;;;;;;;;;;;;;;8.73;89.81;101202.06;5116659;28;20057;-68
2022/04/05 02:23:51;;;;;;;;;;;;;;;8.87;89.28;101210.47;5118216;28;19924;-67
2022/04/05 02:26:16;;;;;;;;;;;;;;;8.82;89.36;101204.47;5117946;28;20331;-67
2022/04/05 02:28:42;;;;;;;;;;;;;;;8.74;89.33;101206.47;5098375;28;19930;-67
2022/04/05 02:31:08;;;;;;;;;;;;;;;8.76;89.08;101204.63;5115395;28;20006;-68
2022/04/05 02:33:33;;;;;;;;;;;;;;;8.70;88.98;101199.53;5116045;28;19939;-67
2022/04/05 02:35:58;;;;;;;;;;;;;;;8.82;88.47;101199.19;5115831;28;20378;-67
2022/04/05 02:38:23;;;;;;;;;;;;;;;8.78;88.50;101200.16;5115884;28;19915;-68
2022/04/05 02:40:48;;;;;;;;;;;;;;;8.80;88.49;101200.13;5115822;28;19923;-67
2022/04/05 02:43:16;;;;;;;;;;;;;;;8.80;88.21;101205.41;5135704;27;19916;-68
2022/04/05 02:45:41;;;;;;;;;;;;;;;8.74;88.03;101201.19;5136857;27;20335;-67
2022/04/05 02:54:09;;;;;;;;;;;;;;;8.76;87.52;101196.69;5135917;27;19922;-65
2022/04/05 02:56:34;;;;;;;;;;;;;;;8.75;87.37;101186.16;5135764;27;20305;-65
2022/04/05 02:59:00;;;;;;;;;;;;;;;8.86;86.96;101203.47;5135684;27;19923;-64
2022/04/05 03:01:25;;;;;;;;;;;;;;;8.82;86.94;101204.47;5135933;27;19971;-65
2022/04/05 03:03:50;;;;;;;;;;;;;;;8.88;86.75;101195.47;5135779;27;19915;-65
2022/04/05 03:06:16;;;;;;;;;;;;;;;8.83;86.80;101206.19;5135647;27;20009;-66
2022/04/05 03:08:41;;;;;;;;;;;;;;;8.80;86.67;101193.06;5117019;27;19915;-66
2022/04/05 03:11:07;;;;;;;;;;;;;;;8.82;86.36;101195.66;5135722;27;19938;-65
2022/04/05 03:13:32;;;;;;;;;;;;;;;8.82;86.05;101199.19;5135478;27;20298;-65
2022/04/05 03:15:58;;;;;;;;;;;;;;;8.84;85.79;101193.84;5115028;27;19923;-66
2022/04/05 03:18:24;;;;;;;;;;;;;;;8.78;85.72;101196.66;5097004;28;19959;-66
2022/04/05 03:20:49;;;;;;;;;;;;;;;8.87;85.30;101196.41;5116412;28;19920;-65
2022/04/05 03:23:14;;;;;;;;;;;;;;;8.80;85.30;101210.72;5117200;28;19926;-66
2022/04/05 03:25:40;;;;;;;;;;;;;;;8.84;85.09;101199.97;5118063;28;20015;-66
2022/04/05 03:28:05;;;;;;;;;;;;;;;8.87;84.93;101197.25;5098560;28;19919;-65
2022/04/05 03:30:31;;;;;;;;;;;;;;;8.88;84.85;101195.47;5114779;28;19959;-66
2022/04/05 03:32:56;;;;;;;;;;;;;;;8.85;84.85;101199.09;5118845;27;19919;-66
2022/04/05 03:35:22;;;;;;;;;;;;;;;8.83;84.75;101197.38;5112508;27;20286;-66
2022/04/05 03:37:47;;;;;;;;;;;;;;;8.86;84.41;101198.16;5133898;27;20350;-66
2022/04/05 03:40:12;;;;;;;;;;;;;;;8.87;84.28;101193.75;5127240;27;20378;-66
2022/04/05 03:42:38;;;;;;;;;;;;;;;8.85;84.20;101198.22;5135270;27;20356;-66
2022/04/05 03:45:04;;;;;;;;;;;;;;;8.92;83.60;101200.63;5135041;27;19915;-66
2022/04/05 03:47:30;;;;;;;;;;;;;;;8.89;83.59;101197.19;5130971;27;19920;-66
2022/04/05 03:49:55;;;;;;;;;;;;;;;8.92;83.54;101195.31;5119749;27;19920;-67
2022/04/05 03:52:21;;;;;;;;;;;;;;;8.96;83.46;101196.09;5125139;27;19968;-67
2022/04/05 03:54:46;;;;;;;;;;;;;;;8.90;83.66;101197.16;5125065;27;20375;-67
2022/04/05 03:57:12;;;;;;;;;;;;;;;8.87;83.61;101194.59;5125424;27;20294;-67
2022/04/05 03:59:37;;;;;;;;;;;;;;;8.85;83.61;101193.78;5129925;27;19916;-67
2022/04/05 04:02:02;;;;;;;;;;;;;;;8.86;83.52;101192.00;5123940;27;19994;-67
2022/04/05 04:04:27;;;;;;;;;;;;;;;8.92;83.31;101197.09;5117174;28;19915;-67
2022/04/05 04:06:53;;;;;;;;;;;;;;;8.96;83.31;101194.34;5124635;28;19920;-67
2022/04/05 04:09:18;;;;;;;;;;;;;;;8.89;83.46;101200.72;5123178;28;20025;-67
2022/04/05 04:11:44;;;;;;;;;;;;;;;8.87;83.47;101199.88;5127977;28;19915;-67
2022/04/05 04:14:10;;;;;;;;;;;;;;;8.88;83.53;101196.34;5112397;28;20044;-66
2022/04/05 04:16:35;;;;;;;;;;;;;;;8.88;83.67;101199.00;5098319;28;19928;-66
2022/04/05 04:19:00;;;;;;;;;;;;;;;8.91;83.74;101198.03;5113690;28;20045;-67
2022/04/05 04:21:25;;;;;;;;;;;;;;;8.88;83.94;101199.00;5113330;28;19923;-66
2022/04/05 04:23:50;;;;;;;;;;;;;;;8.95;83.78;101197.88;5095681;28;20006;-66
2022/04/05 04:26:16;;;;;;;;;;;;;;;8.95;83.88;101197.88;5113771;28;20010;-66
2022/04/05 04:28:41;;;;;;;;;;;;;;;8.97;83.90;101193.41;5113666;28;20413;-66
2022/04/05 04:31:06;;;;;;;;;;;;;;;8.91;84.10;101198.03;5113756;28;19958;-66
2022/04/05 04:33:32;;;;;;;;;;;;;;;8.98;84.46;101194.28;5112657;28;19923;-66
2022/04/05 04:35:58;;;;;;;;;;;;;;;9.02;84.35;101188.84;5113542;28;19944;-66
2022/04/05 04:38:23;;;;;;;;;;;;;;;8.96;84.43;101193.47;5095519;28;20374;-66
2022/04/05 04:40:50;;;;;;;;;;;;;;;8.99;84.46;101185.41;5113076;28;19916;-66
2022/04/05 04:43:16;;;;;;;;;;;;;;;8.98;84.57;101194.28;5133228;28;19972;-67
2022/04/05 04:45:41;;;;;;;;;;;;;;;8.96;84.61;101189.03;5119128;28;19927;-66
2022/04/05 04:48:06;;;;;;;;;;;;;;;9.06;84.47;101195.78;5121691;28;20239;-66
2022/04/05 04:50:32;;;;;;;;;;;;;;;9.09;84.56;101203.63;5133860;28;19972;-66
2022/04/05 04:52:57;;;;;;;;;;;;;;;9.03;84.74;101193.22;5112348;28;19919;-66
2022/04/05 04:55:24;;;;;;;;;;;;;;;9.14;84.62;101200.81;5136546;27;20002;-67
2022/04/05 04:57:49;;;;;;;;;;;;;;;9.10;84.86;101202.72;5134781;27;19915;-66
2022/04/05 05:00:15;;;;;;;;;;;;;;;9.07;85.01;101199.28;5131901;27;20400;-66
2022/04/05 05:02:50;;;;;;;;;;;;;;;9.04;85.21;101202.88;5137564;27;19919;-67
2022/04/05 05:05:17;;;;;;;;;;;;;;;9.00;85.41;101195.09;5134986;27;20013;-67
2022/04/05 05:07:44;;;;;;;;;;;;;;;9.18;85.27;101200.72;5137305;27;20285;-66
2022/04/05 05:10:11;;;;;;;;;;;;;;;9.20;85.62;101190.06;5137621;27;19921;-66
2022/04/05 05:12:36;;;;;;;;;;;;;;;9.25;85.89;101204.00;5137740;27;20026;-67
2022/04/05 05:15:02;;;;;;;;;;;;;;;9.27;86.15;101202.19;5137580;27;19977;-66
2022/04/05 05:17:27;;;;;;;;;;;;;;;9.23;86.61;101198.75;5118810;27;19930;-67
2022/04/05 05:19:52;;;;;;;;;;;;;;;9.23;87.15;101185.50;5128784;27;19927;-68
2022/04/05 05:22:18;;;;;;;;;;;;;;;9.30;87.59;101199.44;5137605;27;19916;-68
2022/04/05 05:24:43;;;;;;;;;;;;;;;9.34;88.04;101190.50;5115840;27;20011;-68
2022/04/05 05:27:08;;;;;;;;;;;;;;;9.42;88.47;101185.81;5118721;27;19922;-69
2022/04/05 05:29:33;;;;;;;;;;;;;;;9.40;89.33;101177.03;5120130;27;19916;-73
2022/04/05 05:31:58;;;;;;;;;;;;;;;9.45;89.96;101177.75;5118979;27;20393;-71
2022/04/05 05:34:24;;;;;;;;;;;;;;;9.50;90.84;101156.38;5117084;27;19926;-69
2022/04/05 05:36:49;;;;;;;;;;;;;;;9.45;91.95;101151.25;5117847;27;19916;-69
2022/04/05 05:39:15;;;;;;;;;;;;;;;9.50;92.73;101136.06;5137027;27;19920;-69
2022/04/05 05:41:40;;;;;;;;;;;;;;;9.54;93.78;101131.47;5137135;27;19954;-68
2022/04/05 05:44:05;;;;;;;;;;;;;;;9.50;95.08;101112.19;5136829;27;19966;-67
2022/04/05 05:46:30;;;;;;;;;;;;;;;9.58;96.17;101103.97;5134238;27;20014;-68
2022/04/05 05:48:55;;;;;;;;;;;;;;;9.50;98.00;101090.09;5116390;28;20006;-68
2022/04/05 05:51:21;;;;;;;;;;;;;;;9.50;99.28;101072.41;5116605;28;19920;-71
2022/04/05 05:53:46;;;;;;;;;;;;;;;9.45;100.00;101060.22;5097711;28;19923;-68
2022/04/05 05:56:11;;;;;;;;;;;;;;;9.48;100.00;101074.25;5134881;27;19920;-68
2022/04/05 05:58:36;;;;;;;;;;;;;;;9.46;100.00;101060.16;5133523;27;20013;-67
2022/04/05 06:01:01;;;;;;;;;;;;;;;9.52;100.00;101064.41;5133301;27;19920;-67
2022/04/05 06:03:27;;;;;;;;;;;;;;;9.55;100.00;101045.75;5119310;27;19963;-67
2022/04/05 06:05:52;;;;;;;;;;;;;;;9.58;100.00;101042.97;5114715;28;19916;-70
2022/04/05 06:08:17;;;;;;;;;;;;;;;9.60;100.00;101025.22;5115976;28;19916;-70
2022/04/05 06:10:42;;;;;;;;;;;;;;;9.68;100.00;101013.41;5124671;27;19915;-69
2022/04/05 06:13:08;;;;;;;;;;;;;;;9.66;100.00;100998.50;5136543;27;19995;-72
2022/04/05 06:15:34;;;;;;;;;;;;;;;9.72;100.00;100979.69;5119158;27;19920;-67
2022/04/05 06:17:59;;;;;;;;;;;;;;;9.64;100.00;100964.06;5136336;27;19992;-67
2022/04/05 06:20:27;;;;;;;;;;;;;;;9.66;100.00;100950.75;5117662;27;19924;-68
2022/04/05 06:22:53;;;;;;;;;;;;;;;9.71;100.00;100954.06;5117866;27;20006;-68
2022/04/05 06:25:21;;;;;;;;;;;;;;;9.83;100.00;100937.72;5136394;27;19923;-68
2022/04/05 06:27:46;;;;;;;;;;;;;;;9.76;100.00;100944.16;5135203;27;19988;-68
2022/04/05 06:30:12;;;;;;;;;;;;;;;9.71;100.00;100935.50;5117793;27;19915;-67
2022/04/05 06:32:40;;;;;;;;;;;;;;;9.63;100.00;100933.16;5135541;27;20288;-68
2022/04/05 06:35:06;;;;;;;;;;;;;;;9.68;100.00;100925.03;5136294;27;20302;-68
2022/04/05 06:37:31;;;;;;;;;;;;;;;9.70;100.00;100937.31;5135642;27;20385;-68
2022/04/05 06:39:57;;;;;;;;;;;;;;;9.76;100.00;100928.25;5117317;27;19916;-67
2022/04/05 06:42:23;;;;;;;;;;;;;;;9.81;100.00;100924.53;5135713;27;19915;-68
2022/04/05 06:44:49;;;;;;;;;;;;;;;9.86;100.00;100911.06;5117008;27;19961;-68
2022/04/05 06:47:14;;;;;;;;;;;;;;;9.85;100.00;100914.66;5135914;27;19915;-68
2022/04/05 06:49:39;;;;;;;;;;;;;;;9.99;100.00;100915.00;5117211;27;19915;-68
2022/04/05 06:52:04;;;;;;;;;;;;;;;10.04;100.00;100920.97;5122093;27;20085;-67
2022/04/05 06:54:29;;;;;;;;;;;;;;;10.07;100.00;100910.25;5128662;27;19968;-68
2022/04/05 06:56:55;;;;;;;;;;;;;;;10.14;100.00;100911.75;5135702;27;20327;-70
2022/04/05 06:59:20;;;;;;;;;;;;;;;10.26;100.00;100913.91;5119481;27;20291;-70
2022/04/05 07:01:46;;;;;;;;;;;;;;;10.18;100.00;100902.75;5114885;27;20006;-68
2022/04/05 07:04:11;;;;;;;;;;;;;;;10.24;100.00;100903.34;5136002;27;19915;-68
2022/04/05 07:06:36;;;;;;;;;;;;;;;10.27;100.00;100897.06;5130750;27;19939;-68
2022/04/05 07:09:02;;;;;;;;;;;;;;;10.45;100.00;100897.19;5096751;28;19985;-68
2022/04/05 07:11:27;;;;;;;;;;;;;;;10.50;100.00;100892.56;5096546;28;20336;-67
2022/04/05 07:13:52;;;;;;;;;;;;;;;10.56;100.00;100897.59;5115247;28;19998;-68
2022/04/05 07:16:18;;;;;;;;;;;;;;;10.57;100.00;100886.03;5096586;28;20024;-68
2022/04/05 07:18:43;;;;;;;;;;;;;;;10.51;100.00;100885.47;5118864;27;20426;-68
2022/04/05 07:21:08;;;;;;;;;;;;;;;10.50;100.00;100883.72;5135286;27;19927;-68
2022/04/05 07:23:36;;;;;;;;;;;;;;;10.44;100.00;100882.19;5117228;27;19919;-67
2022/04/05 07:26:01;;;;;;;;;;;;;;;10.50;100.00;100865.13;5135225;27;19922;-68
2022/04/05 07:28:26;;;;;;;;;;;;;;;10.66;100.00;100872.41;5135093;27;19915;-67
2022/04/05 07:30:51;;;;;;;;;;;;;;;10.72;100.00;100864.16;5135074;27;19915;-67
2022/04/05 07:33:17;;;;;;;;;;;;;;;10.68;100.00;100859.06;5134798;27;20278;-68
2022/04/05 07:35:43;;;;;;;;;;;;;;;10.76;100.00;100855.13;5116445;27;19915;-68
2022/04/05 07:38:08;;;;;;;;;;;;;;;10.70;100.00;100859.81;5116475;27;19916;-67
2022/04/05 07:40:48;;;;;;;;;;;;;;;10.72;100.00;100847.34;5134773;27;20374;-67
2022/04/05 07:43:20;;;;;;;;;;;;;;;10.82;100.00;100854.00;5134898;27;19922;-66
2022/04/05 07:45:49;;;;;;;;;;;;;;;10.87;100.00;100852.00;5134677;27;19919;-67
2022/04/05 07:48:17;;;;;;;;;;;;;;;10.69;100.00;100843.03;5127941;27;19916;-68
2022/04/05 07:50:43;;;;;;;;;;;;;;;10.54;100.00;100846.34;5128489;27;19962;-67
2022/04/05 07:53:08;;;;;;;;;;;;;;;10.48;100.00;100845.72;5115668;28;19920;-68
2022/04/05 07:55:33;;;;;;;;;;;;;;;10.47;100.00;100834.25;5116614;27;20354;-68
2022/04/05 07:57:58;;;;;;;;;;;;;;;10.44;100.00;100839.72;5103137;28;20341;-68
2022/04/05 08:00:24;;;;;;;;;;;;;;;10.42;100.00;100840.69;5130029;27;19915;-68
2022/04/05 08:02:50;;;;;;;;;;;;;;;10.43;100.00;100845.94;5134672;27;19926;-68
2022/04/05 08:05:16;;;;;;;;;;;;;;;10.44;100.00;100846.81;5116510;28;19923;-68
2022/04/05 08:07:41;;;;;;;;;;;;;;;10.31;100.00;100846.44;5111502;28;19915;-68
2022/04/05 08:10:07;;;;;;;;;;;;;;;10.08;100.00;100848.31;5134200;28;20039;-69
2022/04/05 08:12:38;;;;;;;;;;;;;;;10.16;100.00;100862.16;5134753;28;19919;-68
2022/04/05 08:15:03;;;;;;;;;;;;;;;10.29;100.00;100869.53;5134683;28;19922;-68
2022/04/05 08:17:28;;;;;;;;;;;;;;;10.30;100.00;100865.97;5115651;28;19920;-68
2022/04/05 08:19:53;;;;;;;;;;;;;;;10.29;100.00;100866.03;5100910;28;19919;-68
2022/04/05 08:22:19;;;;;;;;;;;;;;;10.33;100.00;100870.28;5133683;28;19966;-68
2022/04/05 08:24:44;;;;;;;;;;;;;;;10.35;100.00;100874.59;5115004;28;19915;-67
2022/04/05 08:27:09;;;;;;;;;;;;;;;10.40;100.00;100869.09;5122604;28;19920;-68
2022/04/05 08:29:39;;;;;;;;;;;;;;;10.47;100.00;100870.56;5124925;27;20363;-68
2022/04/05 08:32:05;;;;;;;;;;;;;;;10.43;100.00;100853.88;5122167;27;19948;-67
2022/04/05 08:34:31;;;;;;;;;;;;;;;10.40;100.00;100872.59;5119638;27;19916;-68
2022/04/05 08:36:57;;;;;;;;;;;;;;;10.35;100.00;100868.44;5123379;27;19924;-68
2022/04/05 08:39:22;;;;;;;;;;;;;;;10.33;100.00;100875.59;5113848;27;19989;-68
2022/04/05 08:41:48;;;;;;;;;;;;;;;10.28;100.00;100873.13;5124738;27;19916;-68
2022/04/05 08:44:15;;;;;;;;;;;;;;;10.24;100.00;100879.47;5123142;27;19931;-67
2022/04/05 08:46:41;;;;;;;;;;;;;;;10.32;100.00;100885.31;5108202;27;19939;-69
2022/04/05 08:49:07;;;;;;;;;;;;;;;10.40;100.00;100887.69;5122875;27;20342;-67
2022/04/05 08:51:32;;;;;;;;;;;;;;;10.53;100.00;100895.06;5119485;27;20014;-67
2022/04/05 08:53:57;;;;;;;;;;;;;;;10.61;100.00;100887.66;5138348;27;20339;-68
2022/04/05 08:56:26;;;;;;;;;;;;;;;10.58;100.00;100884.25;5118206;28;19980;-68
2022/04/05 08:58:52;;;;;;;;;;;;;;;10.61;100.00;100887.66;5134210;27;19943;-68
2022/04/05 09:01:17;;;;;;;;;;;;;;;10.76;100.00;100886.16;5137845;27;19962;-68
2022/04/05 09:03:42;;;;;;;;;;;;;;;10.76;100.00;100879.03;5110422;28;19959;-68
2022/04/05 09:06:23;;;;;;;;;;;;;;;10.89;100.00;100884.66;5123846;27;20325;-68
2022/04/05 09:08:48;;;;;;;;;;;;;;;10.91;100.00;100885.47;5126613;27;19927;-68
2022/04/05 09:11:14;;;;;;;;;;;;;;;10.96;100.00;100883.50;5114140;27;19920;-68
2022/04/05 09:13:40;;;;;;;;;;;;;;;11.03;100.00;100886.75;5115851;27;19915;-68
2022/04/05 09:16:05;;;;;;;;;;;;;;;11.06;100.00;100874.19;5135713;27;20370;-67
2022/04/05 09:18:31;;;;;;;;;;;;;;;10.97;100.00;100869.25;5135204;27;19916;-68
2022/04/05 09:20:56;;;;;;;;;;;;;;;10.91;100.00;100877.50;5114384;28;19959;-68
2022/04/05 09:23:26;;;;;;;;;;;;;;;10.89;100.00;100871.38;5111167;28;19939;-68
2022/04/05 09:25:57;;;;;;;;;;;;;;;10.84;100.00;100884.88;5115736;28;20444;-68
2022/04/05 09:28:29;;;;;;;;;;;;;;;11.00;100.00;100871.78;5112620;28;19916;-67
2022/04/05 09:30:58;;;;;;;;;;;;;;;10.86;100.00;100874.19;5113769;28;20270;-68
2022/04/05 09:33:23;;;;;;;;;;;;;;;11.14;100.00;100872.03;5102475;28;20237;-67
2022/04/05 09:35:53;;;;;;;;;;;;;;;10.97;100.00;100879.91;5117066;28;19916;-67
2022/04/05 09:38:18;;;;;;;;;;;;;;;11.12;100.00;100868.59;5116951;28;19945;-67
2022/04/05 09:40:44;;;;;;;;;;;;;;;11.17;100.00;100871.94;5115196;28;19969;-67
2022/04/05 09:43:09;;;;;;;;;;;;;;;11.11;100.00;100874.00;5117670;28;19920;-67
2022/04/05 09:45:41;;;;;;;;;;;;;;;11.17;100.00;100869.28;5099997;28;19934;-68
2022/04/05 09:48:08;;;;;;;;;;;;;;;11.18;100.00;100872.78;5095513;28;20020;-68
2022/04/05 09:50:53;;;;;;;;;;;;;;;11.22;100.00;100880.53;5099034;28;19920;-68
2022/04/05 09:53:19;;;;;;;;;;;;;;;11.23;100.00;100874.31;5103746;28;19924;-67
2022/04/05 09:55:44;;;;;;;;;;;;;;;11.31;100.00;100868.63;5117472;28;19922;-67
2022/04/05 09:58:13;;;;;;;;;;;;;;;11.25;100.00;100864.44;5116535;28;20059;-67
2022/04/05 10:00:38;;;;;;;;;;;;;;;11.29;100.00;100873.16;5115221;28;20375;-68
2022/04/05 10:03:05;;;;;;;;;;;;;;;11.20;100.00;100876.22;5116533;28;19923;-68
2022/04/05 10:05:31;;;;;;;;;;;;;;;11.21;100.00;100875.28;5115863;28;20267;-68
2022/04/05 10:07:56;;;;;;;;;;;;;;;11.33;100.00;100866.78;5099090;28;20294;-68
2022/04/05 10:10:23;;;;;;;;;;;;;;;11.34;100.00;100864.06;5094933;28;19923;-68
2022/04/05 10:12:49;;;;;;;;;;;;;;;11.08;100.00;100867.00;5094620;28;19923;-68
2022/04/05 10:15:14;;;;;;;;;;;;;;;11.06;100.00;100874.19;5095683;28;20346;-68
2022/04/05 10:17:44;;;;;;;;;;;;;;;11.13;100.00;100875.63;5094299;28;19916;-68
2022/04/05 10:20:09;;;;;;;;;;;;;;;10.88;100.00;100882.09;5101959;28;19920;-68
2022/04/05 10:22:35;;;;;;;;;;;;;;;11.17;100.00;100879.03;5115649;27;19926;-67
2022/04/05 10:25:00;;;;;;;;;;;;;;;11.28;100.00;100888.28;5115491;28;20348;-68
2022/04/05 10:27:26;;;;;;;;;;;;;;;11.76;100.00;100887.81;5115679;28;19996;-68
2022/04/05 10:30:03;;;;;;;;;;;;;;;12.16;100.00;100879.69;5118527;27;19926;-67
2022/04/05 10:32:36;;;;;;;;;;;;;;;12.62;100.00;100886.28;5117665;27;19951;-68
2022/04/05 10:35:05;;;;;;;;;;;;;;;12.84;100.00;100884.25;5127821;27;19926;-68
2022/04/05 10:37:32;;;;;;;;;;;;;;;12.65;100.00;100864.81;5133780;27;19920;-68
2022/04/05 10:39:58;;;;;;;;;;;;;;;12.81;100.00;100868.41;5135996;27;19920;-68
2022/04/05 10:42:25;;;;;;;;;;;;;;;12.68;100.00;100869.97;5135833;27;19915;-68
2022/04/05 10:45:09;;;;;;;;;;;;;;;12.41;100.00;100887.34;5117519;27;19954;-68
2022/04/05 10:47:52;;;;;;;;;;;;;;;12.36;100.00;100852.94;5136637;27;20278;-68
2022/04/05 10:50:18;;;;;;;;;;;;;;;12.14;100.00;100850.47;5132327;27;20370;-68
2022/04/05 10:52:45;;;;;;;;;;;;;;;12.37;100.00;100857.31;5097040;28;19923;-67
2022/04/05 10:55:12;;;;;;;;;;;;;;;12.26;100.00;100857.84;5118329;27;19930;-68
2022/04/05 10:57:38;;;;;;;;;;;;;;;12.27;100.00;100858.72;5117651;27;20108;-68
2022/04/05 11:00:10;;;;;;;;;;;;;;;12.18;100.00;100864.50;5124790;27;20010;-68
2022/04/05 11:02:53;;;;;;;;;;;;;;;12.07;100.00;100854.38;5098319;28;19928;-67
2022/04/05 11:05:19;;;;;;;;;;;;;;;11.89;100.00;100857.06;5096940;28;19916;-69
2022/04/05 11:07:53;;;;;;;;;;;;;;;11.69;100.00;100852.66;5115220;28;20295;-68
2022/04/05 11:10:19;;;;;;;;;;;;;;;11.81;100.00;100849.44;5126447;27;19923;-68
2022/04/05 11:12:45;;;;;;;;;;;;;;;12.29;100.00;100852.38;5135559;27;20320;-67
2022/04/05 11:15:10;;;;;;;;;;;;;;;12.17;100.00;100853.00;5135160;27;19927;-68
2022/04/05 11:17:37;;;;;;;;;;;;;;;12.17;100.00;100855.66;5132335;27;20068;-68
2022/04/05 11:20:03;;;;;;;;;;;;;;;12.13;100.00;100850.56;5134881;27;20294;-69
2022/04/05 11:22:33;;;;;;;;;;;;;;;12.12;100.00;100847.03;5097179;28;19920;-69
2022/04/05 11:25:05;;;;;;;;;;;;;;;12.36;100.00;100836.97;5114353;27;20374;-68
2022/04/05 11:27:30;;;;;;;;;;;;;;;12.55;100.00;100852.88;5106839;27;19930;-67
2022/04/05 11:30:14;;;;;;;;;;;;;;;12.54;100.00;100845.84;5121893;27;19919;-68
2022/04/05 11:32:59;;;;;;;;;;;;;;;12.99;100.00;100839.00;5115508;27;19964;-67
2022/04/05 11:35:25;;;;;;;;;;;;;;;12.83;100.00;100840.72;5114651;28;19915;-68
2022/04/05 11:37:51;;;;;;;;;;;;;;;12.96;100.00;100841.81;5114738;28;19922;-68
2022/04/05 11:40:16;;;;;;;;;;;;;;;12.49;100.00;100845.19;5097812;28;19920;-68
2022/04/05 11:42:42;;;;;;;;;;;;;;;12.21;100.00;100848.38;5114831;28;19923;-68
2022/04/05 11:45:08;;;;;;;;;;;;;;;12.33;100.00;100850.44;5127154;27;19919;-68
2022/04/05 11:47:33;;;;;;;;;;;;;;;11.94;100.00;100852.38;5116935;27;19915;-68
2022/04/05 11:49:58;;;;;;;;;;;;;;;11.91;100.00;100861.34;5135077;27;19961;-68
2022/04/05 11:52:27;;;;;;;;;;;;;;;11.61;100.00;100860.09;5135278;27;19923;-68
2022/04/05 11:57:43;;;;;;;;;;;;;;;11.59;100.00;100875.28;5114200;28;19969;-67
2022/04/05 12:00:09;;;;;;;;;;;;;;;11.60;100.00;100882.31;5098012;28;19920;-68
2022/04/05 12:02:34;;;;;;;;;;;;;;;11.12;100.00;100873.06;5131809;27;19919;-67
2022/04/05 12:04:59;;;;;;;;;;;;;;;10.93;100.00;100880.97;5133177;27;20016;-68
2022/04/05 12:07:25;;;;;;;;;;;;;;;10.92;100.00;100892.50;5121362;28;19923;-68
2022/04/05 12:09:50;;;;;;;;;;;;;;;10.96;100.00;100893.25;5132775;28;19915;-68
2022/04/05 12:12:19;;;;;;;;;;;;;;;11.14;100.00;100903.09;5112939;28;19919;-68
2022/04/05 12:14:44;;;;;;;;;;;;;;;11.11;100.00;100909.38;5098605;28;19915;-68
2022/04/05 12:17:10;;;;;;;;;;;;;;;11.26;100.00;100899.88;5131504;28;19927;-68
2022/04/05 12:19:39;;;;;;;;;;;;;;;11.09;100.00;100902.44;5133026;28;19923;-67
2022/04/05 12:22:08;;;;;;;;;;;;;;;11.09;100.00;100905.97;5114128;28;19919;-67
2022/04/05 12:24:35;;;;;;;;;;;;;;;11.10;100.00;100913.00;5134145;28;19916;-67
2022/04/05 12:27:01;;;;;;;;;;;;;;;11.16;100.00;100907.41;5115227;28;20274;-68
2022/04/05 12:29:28;;;;;;;;;;;;;;;11.20;100.00;100901.03;5133357;28;19980;-67
2022/04/05 12:31:53;;;;;;;;;;;;;;;11.31;100.00;100897.88;5114551;28;19976;-68
2022/04/05 12:34:19;;;;;;;;;;;;;;;11.11;100.00;100906.72;5121792;28;19924;-68
2022/04/05 12:36:46;;;;;;;;;;;;;;;11.11;100.00;100885.47;5104086;28;19920;-68
2022/04/05 12:39:21;;;;;;;;;;;;;;;11.26;100.00;100889.25;5115936;28;19980;-68